sensor_id;sensor_type;location;lat;lon;timestamp;P1;durP1;ratioP1;P2;durP2;ratioP2
54831;SDS011;40730;53.068;6.572;2023-07-13T00:00:17;8.38;;;1.15;;
54831;SDS011;40730;53.068;6.572;2023-07-13T00:02:43;6.68;;;1.20;;
54831;SDS011;40730;53.068;6.572;2023-07-13T00:05:09;7.43;;;1.08;;
54831;SDS011;40730;53.068;6.572;2023-07-13T00:07:35;9.77;;;1.33;;
54831;SDS011;40730;53.068;6.572;2023-07-13T00:10:02;10.50;;;1.92;;
54831;SDS011;40730;53.068;6.572;2023-07-13T00:12:33;10.00;;;1.48;;
54831;SDS011;40730;53.068;6.572;2023-07-13T00:15:01;7.35;;;1.20;;
54831;SDS011;40730;53.068;6.572;2023-07-13T00:17:29;13.25;;;1.85;;
54831;SDS011;40730;53.068;6.572;2023-07-13T00:19:55;8.18;;;1.42;;
54831;SDS011;40730;53.068;6.572;2023-07-13T00:22:23;5.22;;;1.40;;
54831;SDS011;40730;53.068;6.572;2023-07-13T00:24:54;8.20;;;1.25;;
54831;SDS011;40730;53.068;6.572;2023-07-13T00:27:21;10.93;;;1.17;;
54831;SDS011;40730;53.068;6.572;2023-07-13T00:29:47;11.68;;;2.00;;
54831;SDS011;40730;53.068;6.572;2023-07-13T00:32:13;16.45;;;1.92;;
54831;SDS011;40730;53.068;6.572;2023-07-13T00:34:38;9.15;;;1.27;;
54831;SDS011;40730;53.068;6.572;2023-07-13T00:37:05;13.05;;;1.40;;
54831;SDS011;40730;53.068;6.572;2023-07-13T00:39:32;11.60;;;1.60;;
54831;SDS011;40730;53.068;6.572;2023-07-13T00:41:59;7.40;;;1.58;;
54831;SDS011;40730;53.068;6.572;2023-07-13T00:44:25;10.57;;;1.60;;
54831;SDS011;40730;53.068;6.572;2023-07-13T00:46:51;9.77;;;2.17;;
54831;SDS011;40730;53.068;6.572;2023-07-13T00:49:18;7.40;;;1.13;;
54831;SDS011;40730;53.068;6.572;2023-07-13T00:51:49;8.27;;;1.30;;
54831;SDS011;40730;53.068;6.572;2023-07-13T00:54:24;11.10;;;2.20;;
54831;SDS011;40730;53.068;6.572;2023-07-13T00:56:56;9.85;;;1.27;;
54831;SDS011;40730;53.068;6.572;2023-07-13T00:59:25;11.75;;;1.55;;
54831;SDS011;40730;53.068;6.572;2023-07-13T01:01:51;10.40;;;1.83;;
54831;SDS011;40730;53.068;6.572;2023-07-13T01:04:17;16.67;;;2.33;;
54831;SDS011;40730;53.068;6.572;2023-07-13T01:06:43;13.88;;;2.17;;
54831;SDS011;40730;53.068;6.572;2023-07-13T01:09:10;13.32;;;1.70;;
54831;SDS011;40730;53.068;6.572;2023-07-13T01:11:37;11.93;;;2.90;;
54831;SDS011;40730;53.068;6.572;2023-07-13T01:14:03;14.15;;;2.50;;
54831;SDS011;40730;53.068;6.572;2023-07-13T01:16:31;18.55;;;2.58;;
54831;SDS011;40730;53.068;6.572;2023-07-13T01:18:58;10.98;;;2.38;;
54831;SDS011;40730;53.068;6.572;2023-07-13T01:21:27;10.60;;;2.22;;
54831;SDS011;40730;53.068;6.572;2023-07-13T01:23:54;11.30;;;2.35;;
54831;SDS011;40730;53.068;6.572;2023-07-13T01:26:20;10.57;;;2.10;;
54831;SDS011;40730;53.068;6.572;2023-07-13T01:28:46;15.80;;;3.15;;
54831;SDS011;40730;53.068;6.572;2023-07-13T01:31:12;12.57;;;2.03;;
54831;SDS011;40730;53.068;6.572;2023-07-13T01:33:38;12.50;;;2.38;;
54831;SDS011;40730;53.068;6.572;2023-07-13T01:36:06;10.30;;;2.22;;
54831;SDS011;40730;53.068;6.572;2023-07-13T01:38:32;12.38;;;2.15;;
54831;SDS011;40730;53.068;6.572;2023-07-13T01:40:59;18.67;;;3.03;;
54831;SDS011;40730;53.068;6.572;2023-07-13T01:43:25;18.30;;;2.35;;
54831;SDS011;40730;53.068;6.572;2023-07-13T01:45:50;23.45;;;3.40;;
54831;SDS011;40730;53.068;6.572;2023-07-13T01:48:16;24.90;;;4.43;;
54831;SDS011;40730;53.068;6.572;2023-07-13T01:50:42;9.85;;;2.38;;
54831;SDS011;40730;53.068;6.572;2023-07-13T01:53:08;12.88;;;2.60;;
54831;SDS011;40730;53.068;6.572;2023-07-13T01:55:34;12.77;;;2.75;;
54831;SDS011;40730;53.068;6.572;2023-07-13T01:58:01;15.75;;;3.20;;
54831;SDS011;40730;53.068;6.572;2023-07-13T02:00:27;20.30;;;2.55;;
54831;SDS011;40730;53.068;6.572;2023-07-13T02:02:53;10.32;;;2.67;;
54831;SDS011;40730;53.068;6.572;2023-07-13T02:05:19;13.00;;;3.20;;
54831;SDS011;40730;53.068;6.572;2023-07-13T02:07:44;17.17;;;3.25;;
54831;SDS011;40730;53.068;6.572;2023-07-13T02:10:11;13.63;;;3.10;;
54831;SDS011;40730;53.068;6.572;2023-07-13T02:12:37;19.27;;;3.25;;
54831;SDS011;40730;53.068;6.572;2023-07-13T02:15:04;15.82;;;3.05;;
54831;SDS011;40730;53.068;6.572;2023-07-13T02:17:30;12.52;;;2.65;;
54831;SDS011;40730;53.068;6.572;2023-07-13T02:19:57;14.85;;;2.78;;
54831;SDS011;40730;53.068;6.572;2023-07-13T02:22:23;15.98;;;3.40;;
54831;SDS011;40730;53.068;6.572;2023-07-13T02:24:49;20.85;;;3.33;;
54831;SDS011;40730;53.068;6.572;2023-07-13T02:27:15;14.32;;;3.47;;
54831;SDS011;40730;53.068;6.572;2023-07-13T02:29:41;16.80;;;3.58;;
54831;SDS011;40730;53.068;6.572;2023-07-13T02:32:07;13.70;;;3.17;;
54831;SDS011;40730;53.068;6.572;2023-07-13T02:34:33;15.57;;;2.60;;
54831;SDS011;40730;53.068;6.572;2023-07-13T02:36:58;18.42;;;3.20;;
54831;SDS011;40730;53.068;6.572;2023-07-13T02:39:24;14.20;;;2.80;;
54831;SDS011;40730;53.068;6.572;2023-07-13T02:41:50;13.43;;;2.97;;
54831;SDS011;40730;53.068;6.572;2023-07-13T02:44:15;11.90;;;2.92;;
54831;SDS011;40730;53.068;6.572;2023-07-13T02:46:41;6.18;;;1.80;;
54831;SDS011;40730;53.068;6.572;2023-07-13T02:49:07;12.65;;;2.38;;
54831;SDS011;40730;53.068;6.572;2023-07-13T02:51:33;11.90;;;2.63;;
54831;SDS011;40730;53.068;6.572;2023-07-13T02:54:00;13.35;;;2.15;;
54831;SDS011;40730;53.068;6.572;2023-07-13T02:56:28;13.55;;;2.50;;
54831;SDS011;40730;53.068;6.572;2023-07-13T02:58:55;15.00;;;2.20;;
54831;SDS011;40730;53.068;6.572;2023-07-13T03:01:21;8.38;;;2.47;;
54831;SDS011;40730;53.068;6.572;2023-07-13T03:03:47;8.98;;;2.03;;
54831;SDS011;40730;53.068;6.572;2023-07-13T03:06:14;14.43;;;2.67;;
54831;SDS011;40730;53.068;6.572;2023-07-13T03:08:41;7.90;;;2.42;;
54831;SDS011;40730;53.068;6.572;2023-07-13T03:11:10;16.20;;;3.10;;
54831;SDS011;40730;53.068;6.572;2023-07-13T03:13:38;11.10;;;2.63;;
54831;SDS011;40730;53.068;6.572;2023-07-13T03:16:04;16.00;;;2.90;;
54831;SDS011;40730;53.068;6.572;2023-07-13T03:18:31;14.75;;;3.15;;
54831;SDS011;40730;53.068;6.572;2023-07-13T03:20:57;14.93;;;3.35;;
54831;SDS011;40730;53.068;6.572;2023-07-13T03:23:22;15.25;;;3.08;;
54831;SDS011;40730;53.068;6.572;2023-07-13T03:25:48;15.93;;;3.40;;
54831;SDS011;40730;53.068;6.572;2023-07-13T03:28:14;19.48;;;3.75;;
54831;SDS011;40730;53.068;6.572;2023-07-13T03:30:40;16.45;;;2.97;;
54831;SDS011;40730;53.068;6.572;2023-07-13T03:33:06;18.50;;;3.17;;
54831;SDS011;40730;53.068;6.572;2023-07-13T03:35:33;15.90;;;4.13;;
54831;SDS011;40730;53.068;6.572;2023-07-13T03:38:00;18.60;;;3.20;;
54831;SDS011;40730;53.068;6.572;2023-07-13T03:40:27;16.83;;;3.50;;
54831;SDS011;40730;53.068;6.572;2023-07-13T03:42:53;11.65;;;3.28;;
54831;SDS011;40730;53.068;6.572;2023-07-13T03:45:19;17.17;;;3.05;;
54831;SDS011;40730;53.068;6.572;2023-07-13T03:47:45;16.80;;;4.57;;
54831;SDS011;40730;53.068;6.572;2023-07-13T03:50:10;19.83;;;3.40;;
54831;SDS011;40730;53.068;6.572;2023-07-13T03:52:36;19.08;;;3.17;;
54831;SDS011;40730;53.068;6.572;2023-07-13T03:55:02;17.27;;;3.00;;
54831;SDS011;40730;53.068;6.572;2023-07-13T03:57:28;16.50;;;3.63;;
54831;SDS011;40730;53.068;6.572;2023-07-13T03:59:54;12.15;;;2.90;;
54831;SDS011;40730;53.068;6.572;2023-07-13T04:02:20;18.92;;;3.30;;
54831;SDS011;40730;53.068;6.572;2023-07-13T04:04:46;18.00;;;3.83;;
54831;SDS011;40730;53.068;6.572;2023-07-13T04:07:12;15.43;;;2.95;;
54831;SDS011;40730;53.068;6.572;2023-07-13T04:09:37;17.63;;;3.00;;
54831;SDS011;40730;53.068;6.572;2023-07-13T04:12:03;12.07;;;3.08;;
54831;SDS011;40730;53.068;6.572;2023-07-13T04:14:29;18.83;;;3.22;;
54831;SDS011;40730;53.068;6.572;2023-07-13T04:16:55;13.82;;;3.72;;
54831;SDS011;40730;53.068;6.572;2023-07-13T04:19:21;15.15;;;3.33;;
54831;SDS011;40730;53.068;6.572;2023-07-13T04:21:47;14.13;;;2.88;;
54831;SDS011;40730;53.068;6.572;2023-07-13T04:24:13;14.88;;;2.72;;
54831;SDS011;40730;53.068;6.572;2023-07-13T04:26:39;16.45;;;3.00;;
54831;SDS011;40730;53.068;6.572;2023-07-13T04:29:05;13.98;;;2.92;;
54831;SDS011;40730;53.068;6.572;2023-07-13T04:31:31;17.30;;;3.78;;
54831;SDS011;40730;53.068;6.572;2023-07-13T04:33:57;12.88;;;3.13;;
54831;SDS011;40730;53.068;6.572;2023-07-13T04:36:23;15.68;;;2.95;;
54831;SDS011;40730;53.068;6.572;2023-07-13T04:38:52;8.98;;;2.50;;
54831;SDS011;40730;53.068;6.572;2023-07-13T04:41:19;14.90;;;3.30;;
54831;SDS011;40730;53.068;6.572;2023-07-13T04:43:45;19.92;;;4.10;;
54831;SDS011;40730;53.068;6.572;2023-07-13T04:46:12;15.35;;;3.30;;
54831;SDS011;40730;53.068;6.572;2023-07-13T04:48:38;12.63;;;3.50;;
54831;SDS011;40730;53.068;6.572;2023-07-13T04:51:04;11.13;;;3.38;;
54831;SDS011;40730;53.068;6.572;2023-07-13T04:53:30;16.10;;;3.67;;
54831;SDS011;40730;53.068;6.572;2023-07-13T04:55:57;14.88;;;3.15;;
54831;SDS011;40730;53.068;6.572;2023-07-13T04:58:23;18.70;;;3.17;;
54831;SDS011;40730;53.068;6.572;2023-07-13T05:00:49;16.17;;;3.13;;
54831;SDS011;40730;53.068;6.572;2023-07-13T05:03:15;19.73;;;4.25;;
54831;SDS011;40730;53.068;6.572;2023-07-13T05:05:41;18.30;;;3.33;;
54831;SDS011;40730;53.068;6.572;2023-07-13T05:08:07;17.27;;;3.55;;
54831;SDS011;40730;53.068;6.572;2023-07-13T05:10:33;14.43;;;3.47;;
54831;SDS011;40730;53.068;6.572;2023-07-13T05:12:59;12.02;;;2.72;;
54831;SDS011;40730;53.068;6.572;2023-07-13T05:15:26;11.65;;;2.75;;
54831;SDS011;40730;53.068;6.572;2023-07-13T05:17:52;8.98;;;2.50;;
54831;SDS011;40730;53.068;6.572;2023-07-13T05:20:18;14.80;;;3.15;;
54831;SDS011;40730;53.068;6.572;2023-07-13T05:22:44;11.00;;;2.80;;
54831;SDS011;40730;53.068;6.572;2023-07-13T05:25:12;16.05;;;3.05;;
54831;SDS011;40730;53.068;6.572;2023-07-13T05:27:38;15.48;;;2.90;;
54831;SDS011;40730;53.068;6.572;2023-07-13T05:30:03;14.85;;;2.97;;
54831;SDS011;40730;53.068;6.572;2023-07-13T05:32:30;12.40;;;2.80;;
54831;SDS011;40730;53.068;6.572;2023-07-13T05:34:56;12.50;;;2.40;;
54831;SDS011;40730;53.068;6.572;2023-07-13T05:37:21;10.88;;;2.80;;
54831;SDS011;40730;53.068;6.572;2023-07-13T05:39:47;14.70;;;2.97;;
54831;SDS011;40730;53.068;6.572;2023-07-13T05:42:13;15.38;;;3.35;;
54831;SDS011;40730;53.068;6.572;2023-07-13T05:44:39;10.90;;;2.83;;
54831;SDS011;40730;53.068;6.572;2023-07-13T05:47:04;13.00;;;2.42;;
54831;SDS011;40730;53.068;6.572;2023-07-13T05:49:30;14.88;;;2.50;;
54831;SDS011;40730;53.068;6.572;2023-07-13T05:51:56;11.85;;;2.65;;
54831;SDS011;40730;53.068;6.572;2023-07-13T05:54:22;16.58;;;2.78;;
54831;SDS011;40730;53.068;6.572;2023-07-13T05:56:48;14.27;;;2.58;;
54831;SDS011;40730;53.068;6.572;2023-07-13T05:59:13;12.68;;;2.88;;
54831;SDS011;40730;53.068;6.572;2023-07-13T06:01:39;11.90;;;2.53;;
54831;SDS011;40730;53.068;6.572;2023-07-13T06:04:05;12.63;;;2.92;;
54831;SDS011;40730;53.068;6.572;2023-07-13T06:06:32;10.85;;;2.78;;
54831;SDS011;40730;53.068;6.572;2023-07-13T06:08:58;9.27;;;2.20;;
54831;SDS011;40730;53.068;6.572;2023-07-13T06:11:24;12.05;;;2.25;;
54831;SDS011;40730;53.068;6.572;2023-07-13T06:13:51;9.75;;;2.13;;
54831;SDS011;40730;53.068;6.572;2023-07-13T06:16:17;11.35;;;2.05;;
54831;SDS011;40730;53.068;6.572;2023-07-13T06:18:43;14.15;;;1.58;;
54831;SDS011;40730;53.068;6.572;2023-07-13T06:21:13;9.68;;;1.60;;
54831;SDS011;40730;53.068;6.572;2023-07-13T06:23:41;7.50;;;1.38;;
54831;SDS011;40730;53.068;6.572;2023-07-13T06:26:07;12.20;;;1.65;;
54831;SDS011;40730;53.068;6.572;2023-07-13T06:28:33;11.90;;;1.50;;
54831;SDS011;40730;53.068;6.572;2023-07-13T06:31:00;9.65;;;1.30;;
54831;SDS011;40730;53.068;6.572;2023-07-13T06:33:26;8.27;;;1.27;;
54831;SDS011;40730;53.068;6.572;2023-07-13T06:35:52;6.18;;;1.50;;
54831;SDS011;40730;53.068;6.572;2023-07-13T06:38:19;10.95;;;1.27;;
54831;SDS011;40730;53.068;6.572;2023-07-13T06:40:45;6.18;;;0.70;;
54831;SDS011;40730;53.068;6.572;2023-07-13T06:43:11;8.73;;;1.58;;
54831;SDS011;40730;53.068;6.572;2023-07-13T06:45:44;7.32;;;0.82;;
54831;SDS011;40730;53.068;6.572;2023-07-13T06:48:12;10.00;;;1.27;;
54831;SDS011;40730;53.068;6.572;2023-07-13T06:50:39;7.60;;;1.02;;
54831;SDS011;40730;53.068;6.572;2023-07-13T06:53:05;5.20;;;0.98;;
54831;SDS011;40730;53.068;6.572;2023-07-13T06:55:31;7.70;;;1.17;;
54831;SDS011;40730;53.068;6.572;2023-07-13T06:57:57;11.55;;;0.80;;
54831;SDS011;40730;53.068;6.572;2023-07-13T07:00:23;7.57;;;1.45;;
54831;SDS011;40730;53.068;6.572;2023-07-13T07:02:48;4.95;;;0.88;;
54831;SDS011;40730;53.068;6.572;2023-07-13T07:05:14;12.35;;;0.93;;
54831;SDS011;40730;53.068;6.572;2023-07-13T07:07:40;5.70;;;0.70;;
54831;SDS011;40730;53.068;6.572;2023-07-13T07:10:06;7.43;;;0.60;;
54831;SDS011;40730;53.068;6.572;2023-07-13T07:12:32;6.80;;;1.48;;
54831;SDS011;40730;53.068;6.572;2023-07-13T07:14:58;5.03;;;0.80;;
54831;SDS011;40730;53.068;6.572;2023-07-13T07:17:23;9.32;;;0.68;;
54831;SDS011;40730;53.068;6.572;2023-07-13T07:19:50;5.85;;;0.60;;
54831;SDS011;40730;53.068;6.572;2023-07-13T07:22:16;3.97;;;0.88;;
54831;SDS011;40730;53.068;6.572;2023-07-13T07:24:41;5.95;;;0.98;;
54831;SDS011;40730;53.068;6.572;2023-07-13T07:27:07;5.00;;;0.80;;
54831;SDS011;40730;53.068;6.572;2023-07-13T07:29:33;6.68;;;0.65;;
54831;SDS011;40730;53.068;6.572;2023-07-13T07:31:59;4.65;;;0.75;;
54831;SDS011;40730;53.068;6.572;2023-07-13T07:34:25;3.60;;;0.50;;
54831;SDS011;40730;53.068;6.572;2023-07-13T07:36:51;8.07;;;0.82;;
54831;SDS011;40730;53.068;6.572;2023-07-13T07:39:17;3.97;;;0.80;;
54831;SDS011;40730;53.068;6.572;2023-07-13T07:41:42;3.63;;;0.60;;
54831;SDS011;40730;53.068;6.572;2023-07-13T07:44:08;4.35;;;0.75;;
54831;SDS011;40730;53.068;6.572;2023-07-13T07:46:35;5.53;;;0.55;;
54831;SDS011;40730;53.068;6.572;2023-07-13T07:49:01;6.32;;;1.48;;
54831;SDS011;40730;53.068;6.572;2023-07-13T07:51:27;7.35;;;0.52;;
54831;SDS011;40730;53.068;6.572;2023-07-13T07:53:53;5.28;;;0.60;;
54831;SDS011;40730;53.068;6.572;2023-07-13T07:56:18;4.90;;;0.60;;
54831;SDS011;40730;53.068;6.572;2023-07-13T07:58:44;6.25;;;0.57;;
54831;SDS011;40730;53.068;6.572;2023-07-13T08:01:10;4.80;;;0.40;;
54831;SDS011;40730;53.068;6.572;2023-07-13T08:03:35;3.85;;;0.55;;
54831;SDS011;40730;53.068;6.572;2023-07-13T08:06:01;4.80;;;0.40;;
54831;SDS011;40730;53.068;6.572;2023-07-13T08:08:27;5.80;;;0.60;;
54831;SDS011;40730;53.068;6.572;2023-07-13T08:10:53;3.08;;;0.50;;
54831;SDS011;40730;53.068;6.572;2023-07-13T08:13:19;3.47;;;0.60;;
54831;SDS011;40730;53.068;6.572;2023-07-13T08:15:45;5.82;;;0.50;;
54831;SDS011;40730;53.068;6.572;2023-07-13T08:18:11;4.78;;;0.63;;
54831;SDS011;40730;53.068;6.572;2023-07-13T08:20:37;3.05;;;0.55;;
54831;SDS011;40730;53.068;6.572;2023-07-13T08:23:04;4.80;;;0.95;;
54831;SDS011;40730;53.068;6.572;2023-07-13T08:25:30;6.60;;;0.45;;
54831;SDS011;40730;53.068;6.572;2023-07-13T08:27:55;5.75;;;0.50;;
54831;SDS011;40730;53.068;6.572;2023-07-13T08:30:21;6.15;;;0.45;;
54831;SDS011;40730;53.068;6.572;2023-07-13T08:32:47;4.07;;;0.40;;
54831;SDS011;40730;53.068;6.572;2023-07-13T08:35:14;6.35;;;0.63;;
54831;SDS011;40730;53.068;6.572;2023-07-13T08:37:41;4.22;;;0.50;;
54831;SDS011;40730;53.068;6.572;2023-07-13T08:40:08;2.15;;;0.25;;
54831;SDS011;40730;53.068;6.572;2023-07-13T08:42:39;4.32;;;0.40;;
54831;SDS011;40730;53.068;6.572;2023-07-13T08:45:17;4.15;;;0.40;;
54831;SDS011;40730;53.068;6.572;2023-07-13T08:50:50;2.75;;;0.40;;
54831;SDS011;40730;53.068;6.572;2023-07-13T08:53:23;3.10;;;0.75;;
54831;SDS011;40730;53.068;6.572;2023-07-13T08:55:51;6.32;;;1.13;;
54831;SDS011;40730;53.068;6.572;2023-07-13T08:58:22;4.40;;;0.75;;
54831;SDS011;40730;53.068;6.572;2023-07-13T09:03:23;2.70;;;0.47;;
54831;SDS011;40730;53.068;6.572;2023-07-13T09:05:52;4.20;;;0.57;;
54831;SDS011;40730;53.068;6.572;2023-07-13T09:14:05;3.63;;;0.60;;
54831;SDS011;40730;53.068;6.572;2023-07-13T09:16:47;1.67;;;0.40;;
54831;SDS011;40730;53.068;6.572;2023-07-13T09:19:17;3.50;;;0.70;;
54831;SDS011;40730;53.068;6.572;2023-07-13T09:21:49;1.75;;;0.70;;
54831;SDS011;40730;53.068;6.572;2023-07-13T09:26:58;3.17;;;0.77;;
54831;SDS011;40730;53.068;6.572;2023-07-13T09:29:32;9.65;;;0.85;;
54831;SDS011;40730;53.068;6.572;2023-07-13T09:32:01;4.40;;;0.85;;
54831;SDS011;40730;53.068;6.572;2023-07-13T09:34:29;4.68;;;1.08;;
54831;SDS011;40730;53.068;6.572;2023-07-13T09:36:57;3.60;;;0.73;;
54831;SDS011;40730;53.068;6.572;2023-07-13T09:42:17;3.33;;;0.63;;
54831;SDS011;40730;53.068;6.572;2023-07-13T09:47:23;4.40;;;1.20;;
54831;SDS011;40730;53.068;6.572;2023-07-13T09:50:01;3.42;;;1.35;;
54831;SDS011;40730;53.068;6.572;2023-07-13T09:52:43;5.30;;;1.17;;
54831;SDS011;40730;53.068;6.572;2023-07-13T09:58:16;7.32;;;2.17;;
54831;SDS011;40730;53.068;6.572;2023-07-13T10:01:00;5.30;;;1.90;;
54831;SDS011;40730;53.068;6.572;2023-07-13T10:03:31;9.57;;;2.63;;
54831;SDS011;40730;53.068;6.572;2023-07-13T10:06:16;9.52;;;2.97;;
54831;SDS011;40730;53.068;6.572;2023-07-13T10:08:47;9.77;;;2.40;;
54831;SDS011;40730;53.068;6.572;2023-07-13T10:13:44;8.07;;;3.53;;
54831;SDS011;40730;53.068;6.572;2023-07-13T10:16:20;7.15;;;4.05;;
54831;SDS011;40730;53.068;6.572;2023-07-13T10:21:39;7.57;;;2.75;;
54831;SDS011;40730;53.068;6.572;2023-07-13T10:24:17;6.05;;;3.47;;
54831;SDS011;40730;53.068;6.572;2023-07-13T10:26:52;5.53;;;2.63;;
54831;SDS011;40730;53.068;6.572;2023-07-13T10:29:38;6.13;;;2.95;;
54831;SDS011;40730;53.068;6.572;2023-07-13T10:32:11;5.60;;;2.75;;
54831;SDS011;40730;53.068;6.572;2023-07-13T10:34:38;4.97;;;2.40;;
54831;SDS011;40730;53.068;6.572;2023-07-13T10:37:07;5.93;;;2.00;;
54831;SDS011;40730;53.068;6.572;2023-07-13T10:39:43;6.22;;;2.45;;
54831;SDS011;40730;53.068;6.572;2023-07-13T10:42:11;2.97;;;1.52;;
54831;SDS011;40730;53.068;6.572;2023-07-13T10:44:41;3.83;;;1.67;;
54831;SDS011;40730;53.068;6.572;2023-07-13T10:47:08;3.72;;;2.20;;
54831;SDS011;40730;53.068;6.572;2023-07-13T10:49:39;4.43;;;1.58;;
54831;SDS011;40730;53.068;6.572;2023-07-13T10:52:20;3.30;;;1.60;;
54831;SDS011;40730;53.068;6.572;2023-07-13T10:58:12;3.78;;;2.05;;
54831;SDS011;40730;53.068;6.572;2023-07-13T11:03:28;4.10;;;1.23;;
54831;SDS011;40730;53.068;6.572;2023-07-13T11:08:56;3.60;;;0.73;;
54831;SDS011;40730;53.068;6.572;2023-07-13T11:19:08;3.78;;;0.60;;
54831;SDS011;40730;53.068;6.572;2023-07-13T11:24:47;2.05;;;0.32;;
54831;SDS011;40730;53.068;6.572;2023-07-13T11:27:37;3.35;;;0.40;;
54831;SDS011;40730;53.068;6.572;2023-07-13T11:38:40;5.07;;;0.32;;
54831;SDS011;40730;53.068;6.572;2023-07-13T11:41:22;1.13;;;0.20;;
54831;SDS011;40730;53.068;6.572;2023-07-13T11:43:55;1.75;;;0.20;;
54831;SDS011;40730;53.068;6.572;2023-07-13T11:46:29;2.78;;;0.40;;
54831;SDS011;40730;53.068;6.572;2023-07-13T11:48:55;3.90;;;0.40;;
54831;SDS011;40730;53.068;6.572;2023-07-13T11:51:34;3.22;;;0.30;;
54831;SDS011;40730;53.068;6.572;2023-07-13T11:54:15;2.60;;;0.55;;
54831;SDS011;40730;53.068;6.572;2023-07-13T11:56:44;6.68;;;0.50;;
54831;SDS011;40730;53.068;6.572;2023-07-13T11:59:11;4.85;;;0.63;;
54831;SDS011;40730;53.068;6.572;2023-07-13T12:01:51;2.47;;;0.30;;
54831;SDS011;40730;53.068;6.572;2023-07-13T12:04:28;1.73;;;0.20;;
54831;SDS011;40730;53.068;6.572;2023-07-13T12:07:07;2.75;;;0.38;;
54831;SDS011;40730;53.068;6.572;2023-07-13T12:09:39;2.30;;;0.28;;
54831;SDS011;40730;53.068;6.572;2023-07-13T12:12:14;3.78;;;0.25;;
54831;SDS011;40730;53.068;6.572;2023-07-13T12:14:43;1.90;;;0.20;;
54831;SDS011;40730;53.068;6.572;2023-07-13T12:17:15;2.08;;;0.30;;
54831;SDS011;40730;53.068;6.572;2023-07-13T12:19:44;3.75;;;0.40;;
54831;SDS011;40730;53.068;6.572;2023-07-13T12:22:11;2.65;;;0.20;;
54831;SDS011;40730;53.068;6.572;2023-07-13T12:24:39;2.35;;;0.30;;
54831;SDS011;40730;53.068;6.572;2023-07-13T12:27:13;4.15;;;0.20;;
54831;SDS011;40730;53.068;6.572;2023-07-13T12:29:51;2.55;;;0.20;;
54831;SDS011;40730;53.068;6.572;2023-07-13T12:32:23;2.15;;;0.52;;
54831;SDS011;40730;53.068;6.572;2023-07-13T12:35:01;2.65;;;0.30;;
54831;SDS011;40730;53.068;6.572;2023-07-13T12:37:41;5.32;;;0.77;;
54831;SDS011;40730;53.068;6.572;2023-07-13T12:40:17;5.30;;;0.75;;
54831;SDS011;40730;53.068;6.572;2023-07-13T12:42:45;4.25;;;0.30;;
54831;SDS011;40730;53.068;6.572;2023-07-13T12:47:43;2.42;;;0.20;;
54831;SDS011;40730;53.068;6.572;2023-07-13T12:50:17;2.38;;;0.30;;
54831;SDS011;40730;53.068;6.572;2023-07-13T12:52:44;1.58;;;0.20;;
54831;SDS011;40730;53.068;6.572;2023-07-13T12:55:18;2.22;;;0.22;;
54831;SDS011;40730;53.068;6.572;2023-07-13T13:00:28;3.42;;;0.40;;
54831;SDS011;40730;53.068;6.572;2023-07-13T13:02:58;1.00;;;0.20;;
54831;SDS011;40730;53.068;6.572;2023-07-13T13:05:30;1.40;;;0.20;;
54831;SDS011;40730;53.068;6.572;2023-07-13T13:07:58;2.17;;;0.10;;
54831;SDS011;40730;53.068;6.572;2023-07-13T13:10:25;4.72;;;0.30;;
54831;SDS011;40730;53.068;6.572;2023-07-13T13:12:51;2.47;;;0.25;;
54831;SDS011;40730;53.068;6.572;2023-07-13T13:15:17;3.92;;;0.30;;
54831;SDS011;40730;53.068;6.572;2023-07-13T13:17:43;2.08;;;0.30;;
54831;SDS011;40730;53.068;6.572;2023-07-13T13:20:16;2.05;;;0.20;;
54831;SDS011;40730;53.068;6.572;2023-07-13T13:22:44;1.63;;;0.20;;
54831;SDS011;40730;53.068;6.572;2023-07-13T13:25:10;4.60;;;0.30;;
54831;SDS011;40730;53.068;6.572;2023-07-13T13:27:36;2.13;;;0.22;;
54831;SDS011;40730;53.068;6.572;2023-07-13T13:30:08;1.83;;;0.20;;
54831;SDS011;40730;53.068;6.572;2023-07-13T13:32:39;1.10;;;0.35;;
54831;SDS011;40730;53.068;6.572;2023-07-13T13:35:05;1.27;;;0.13;;
54831;SDS011;40730;53.068;6.572;2023-07-13T13:37:37;1.55;;;0.30;;
54831;SDS011;40730;53.068;6.572;2023-07-13T13:40:05;2.60;;;0.20;;
54831;SDS011;40730;53.068;6.572;2023-07-13T13:42:42;2.92;;;0.30;;
54831;SDS011;40730;53.068;6.572;2023-07-13T13:45:12;4.00;;;0.35;;
54831;SDS011;40730;53.068;6.572;2023-07-13T13:47:38;1.58;;;0.20;;
54831;SDS011;40730;53.068;6.572;2023-07-13T13:50:12;7.35;;;0.63;;
54831;SDS011;40730;53.068;6.572;2023-07-13T13:52:44;1.60;;;0.50;;
54831;SDS011;40730;53.068;6.572;2023-07-13T13:55:14;2.63;;;0.20;;
54831;SDS011;40730;53.068;6.572;2023-07-13T13:57:40;3.25;;;0.30;;
54831;SDS011;40730;53.068;6.572;2023-07-13T14:00:09;3.35;;;0.50;;
54831;SDS011;40730;53.068;6.572;2023-07-13T14:02:39;5.35;;;0.82;;
54831;SDS011;40730;53.068;6.572;2023-07-13T14:05:09;2.90;;;0.40;;
54831;SDS011;40730;53.068;6.572;2023-07-13T14:07:37;4.20;;;0.30;;
54831;SDS011;40730;53.068;6.572;2023-07-13T14:10:14;2.95;;;0.40;;
54831;SDS011;40730;53.068;6.572;2023-07-13T14:12:44;2.95;;;0.20;;
54831;SDS011;40730;53.068;6.572;2023-07-13T14:15:20;2.15;;;0.28;;
54831;SDS011;40730;53.068;6.572;2023-07-13T14:17:48;1.38;;;0.20;;
54831;SDS011;40730;53.068;6.572;2023-07-13T14:20:15;0.93;;;0.10;;
54831;SDS011;40730;53.068;6.572;2023-07-13T14:22:42;1.60;;;0.47;;
54831;SDS011;40730;53.068;6.572;2023-07-13T14:25:13;2.00;;;0.30;;
54831;SDS011;40730;53.068;6.572;2023-07-13T14:27:40;2.58;;;0.20;;
54831;SDS011;40730;53.068;6.572;2023-07-13T14:32:39;2.80;;;0.20;;
54831;SDS011;40730;53.068;6.572;2023-07-13T14:35:05;2.90;;;0.20;;
54831;SDS011;40730;53.068;6.572;2023-07-13T14:37:32;5.57;;;0.30;;
54831;SDS011;40730;53.068;6.572;2023-07-13T14:39:58;2.60;;;0.30;;
54831;SDS011;40730;53.068;6.572;2023-07-13T14:42:24;4.18;;;0.40;;
54831;SDS011;40730;53.068;6.572;2023-07-13T14:44:49;3.17;;;0.25;;
54831;SDS011;40730;53.068;6.572;2023-07-13T14:47:15;1.40;;;0.20;;
54831;SDS011;40730;53.068;6.572;2023-07-13T14:49:44;2.45;;;0.30;;
54831;SDS011;40730;53.068;6.572;2023-07-13T14:52:16;5.13;;;0.32;;
54831;SDS011;40730;53.068;6.572;2023-07-13T14:54:48;3.83;;;0.38;;
54831;SDS011;40730;53.068;6.572;2023-07-13T14:57:15;3.75;;;0.40;;
54831;SDS011;40730;53.068;6.572;2023-07-13T14:59:43;3.17;;;0.30;;
54831;SDS011;40730;53.068;6.572;2023-07-13T15:05:15;4.78;;;0.35;;
54831;SDS011;40730;53.068;6.572;2023-07-13T15:07:43;1.63;;;0.20;;
54831;SDS011;40730;53.068;6.572;2023-07-13T15:10:15;4.25;;;0.40;;
54831;SDS011;40730;53.068;6.572;2023-07-13T15:12:42;2.90;;;0.20;;
54831;SDS011;40730;53.068;6.572;2023-07-13T15:15:08;3.20;;;0.50;;
54831;SDS011;40730;53.068;6.572;2023-07-13T15:17:38;5.30;;;0.40;;
54831;SDS011;40730;53.068;6.572;2023-07-13T15:22:48;5.63;;;0.43;;
54831;SDS011;40730;53.068;6.572;2023-07-13T15:25:18;2.65;;;0.40;;
54831;SDS011;40730;53.068;6.572;2023-07-13T15:27:50;3.70;;;0.52;;
54831;SDS011;40730;53.068;6.572;2023-07-13T15:30:16;3.67;;;0.40;;
54831;SDS011;40730;53.068;6.572;2023-07-13T15:32:43;3.38;;;0.30;;
54831;SDS011;40730;53.068;6.572;2023-07-13T15:35:19;2.92;;;0.50;;
54831;SDS011;40730;53.068;6.572;2023-07-13T15:37:47;4.78;;;0.30;;
54831;SDS011;40730;53.068;6.572;2023-07-13T15:40:13;2.95;;;0.30;;
54831;SDS011;40730;53.068;6.572;2023-07-13T15:42:43;3.47;;;0.57;;
54831;SDS011;40730;53.068;6.572;2023-07-13T15:45:20;3.53;;;0.30;;
54831;SDS011;40730;53.068;6.572;2023-07-13T15:47:48;3.13;;;0.40;;
54831;SDS011;40730;53.068;6.572;2023-07-13T15:50:23;5.43;;;0.40;;
54831;SDS011;40730;53.068;6.572;2023-07-13T15:52:53;4.93;;;0.40;;
54831;SDS011;40730;53.068;6.572;2023-07-13T15:55:23;7.18;;;0.75;;
54831;SDS011;40730;53.068;6.572;2023-07-13T15:57:51;3.40;;;0.30;;